createdAt,value
2022-10-20T00:01:23.165Z,6.80
2022-10-20T00:03:51.565Z,8.67
2022-10-20T00:06:26.639Z,10.13
2022-10-20T00:08:55.257Z,7.47
2022-10-20T00:11:23.580Z,9.23
2022-10-20T00:13:52.602Z,7.47
2022-10-20T00:16:20.621Z,17.23
2022-10-20T00:18:47.697Z,15.73
2022-10-20T00:21:23.636Z,20.60
2022-10-20T00:23:50.641Z,15.37
2022-10-20T00:26:23.311Z,15.53
2022-10-20T00:28:51.581Z,13.00
2022-10-20T00:31:21.479Z,17.73
2022-10-20T00:33:51.612Z,13.47
2022-10-20T00:36:20.829Z,8.10
2022-10-20T00:38:47.690Z,10.43
2022-10-20T00:41:16.843Z,6.70
2022-10-20T00:43:49.705Z,7.20
2022-10-20T00:46:21.823Z,9.43
2022-10-20T00:48:55.372Z,12.47
2022-10-20T00:51:26.518Z,15.73
2022-10-20T00:54:00.178Z,15.97
2022-10-20T00:56:27.265Z,17.20
2022-10-20T00:58:54.753Z,22.97
2022-10-20T01:01:21.879Z,16.50
2022-10-20T01:03:51.461Z,18.00
2022-10-20T01:06:22.273Z,16.93
2022-10-20T01:08:51.599Z,17.37
2022-10-20T01:11:23.938Z,17.53
2022-10-20T01:14:31.763Z,15.13
2022-10-20T01:17:42.064Z,10.30
2022-10-20T01:21:04.427Z,10.60
2022-10-20T01:24:35.968Z,8.10
2022-10-20T01:27:29.180Z,8.10
2022-10-20T01:30:21.214Z,9.10
2022-10-20T01:33:20.949Z,11.03
2022-10-20T01:36:11.159Z,7.77
2022-10-20T01:38:50.520Z,14.10
2022-10-20T01:41:34.322Z,8.10
2022-10-20T01:44:07.841Z,10.00
2022-10-20T01:46:37.576Z,7.90
2022-10-20T01:49:06.591Z,8.23
2022-10-20T01:51:33.622Z,7.27
2022-10-20T01:54:00.718Z,7.93
2022-10-20T01:56:39.082Z,10.47
2022-10-20T01:59:34.191Z,8.37
2022-10-20T02:02:33.167Z,8.90
2022-10-20T02:05:28.372Z,9.23
2022-10-20T02:08:06.799Z,8.20
2022-10-20T02:10:46.829Z,16.37
2022-10-20T02:13:15.010Z,7.93
2022-10-20T02:15:47.259Z,16.73
2022-10-20T02:18:18.090Z,8.90
2022-10-20T02:20:50.107Z,8.13
2022-10-20T02:23:17.969Z,10.67
2022-10-20T02:25:49.445Z,12.50
2022-10-20T02:28:19.666Z,10.03
2022-10-20T02:30:47.726Z,10.87
2022-10-20T02:33:16.683Z,9.97
2022-10-20T02:35:51.541Z,10.07
2022-10-20T02:38:18.452Z,9.67
2022-10-20T02:40:45.523Z,10.87
2022-10-20T02:43:12.476Z,13.23
2022-10-20T02:45:39.490Z,11.67
2022-10-20T02:48:07.957Z,9.90
2022-10-20T02:50:35.569Z,10.43
2022-10-20T02:53:03.191Z,12.30
2022-10-20T02:55:30.138Z,10.67
2022-10-20T02:57:57.765Z,12.60
2022-10-20T03:00:24.853Z,21.50
2022-10-20T03:02:52.217Z,12.17
2022-10-20T03:05:19.130Z,11.80
2022-10-20T03:07:45.983Z,15.20
2022-10-20T03:10:12.901Z,15.57
2022-10-20T03:12:39.779Z,13.57
2022-10-20T03:15:07.182Z,19.47
2022-10-20T03:17:34.728Z,18.73
2022-10-20T03:20:02.702Z,19.83
2022-10-20T03:25:01.479Z,21.17
2022-10-20T03:27:28.529Z,19.03
2022-10-20T03:29:55.431Z,16.07
2022-10-20T03:32:22.384Z,14.67
2022-10-20T03:34:49.187Z,13.50
2022-10-20T03:37:16.020Z,13.53
2022-10-20T03:39:42.905Z,12.57
2022-10-20T03:42:09.768Z,20.53
2022-10-20T03:44:36.646Z,18.23
2022-10-20T03:47:03.571Z,13.20
2022-10-20T03:49:31.659Z,11.67
2022-10-20T03:51:58.957Z,11.30
2022-10-20T03:54:25.907Z,15.00
2022-10-20T03:56:52.823Z,14.37
2022-10-20T03:59:19.703Z,14.00
2022-10-20T04:01:46.946Z,12.03
2022-10-20T04:04:14.202Z,12.37
2022-10-20T04:06:41.127Z,13.60
2022-10-20T04:09:08.002Z,14.50
2022-10-20T04:11:34.951Z,12.60
2022-10-20T04:14:01.878Z,12.73
2022-10-20T04:16:28.819Z,12.80
2022-10-20T04:18:56.448Z,13.70
2022-10-20T04:21:23.442Z,14.03
2022-10-20T04:23:50.320Z,17.33
2022-10-20T04:26:17.473Z,17.00
2022-10-20T04:28:44.502Z,14.43
2022-10-20T04:31:11.384Z,18.33
2022-10-20T04:33:38.298Z,17.30
2022-10-20T04:36:08.547Z,18.80
2022-10-20T04:38:36.146Z,17.43
2022-10-20T04:41:04.850Z,13.10
2022-10-20T04:43:34.508Z,11.90
2022-10-20T04:46:08.369Z,14.43
2022-10-20T04:48:37.050Z,14.63
2022-10-20T04:51:09.153Z,12.30
2022-10-20T04:53:36.410Z,13.10
2022-10-20T04:56:05.203Z,17.40
2022-10-20T04:58:32.720Z,13.90
2022-10-20T05:01:08.634Z,13.70
2022-10-20T05:03:36.472Z,14.23
2022-10-20T05:06:15.814Z,14.80
2022-10-20T05:08:44.392Z,11.77
2022-10-20T05:11:11.408Z,13.87
2022-10-20T05:13:38.876Z,22.13
2022-10-20T05:16:06.374Z,15.83
2022-10-20T05:18:34.081Z,14.07
2022-10-20T05:21:25.487Z,25.67
2022-10-20T05:23:57.579Z,14.43
2022-10-20T05:26:25.393Z,14.80
2022-10-20T05:28:53.256Z,12.17
2022-10-20T05:31:22.271Z,12.10
2022-10-20T05:33:52.045Z,12.97
2022-10-20T05:36:21.942Z,16.13
2022-10-20T05:38:50.221Z,12.30
2022-10-20T05:41:19.211Z,14.03
2022-10-20T05:43:54.016Z,13.53
2022-10-20T05:46:21.074Z,18.13
2022-10-20T05:48:47.987Z,15.67
2022-10-20T05:51:16.110Z,13.90
2022-10-20T05:53:43.846Z,13.63
2022-10-20T05:56:14.725Z,13.67
2022-10-20T05:58:43.651Z,13.27
2022-10-20T06:01:18.066Z,18.07
2022-10-20T06:03:52.959Z,14.50
2022-10-20T06:06:22.090Z,16.93
2022-10-20T06:08:50.952Z,21.57
2022-10-20T06:11:19.344Z,18.90
2022-10-20T06:13:48.634Z,15.90
2022-10-20T06:16:21.575Z,25.63
2022-10-20T06:18:49.073Z,15.67
2022-10-20T06:21:27.629Z,17.67
2022-10-20T06:23:54.624Z,16.37
2022-10-20T06:26:29.570Z,15.03
2022-10-20T06:29:03.547Z,13.67
2022-10-20T06:31:39.771Z,12.63
2022-10-20T06:34:09.235Z,12.70
2022-10-20T06:36:37.448Z,15.80
2022-10-20T06:39:05.867Z,14.93
2022-10-20T06:41:33.443Z,17.83
2022-10-20T06:44:00.591Z,14.27
2022-10-20T06:46:30.144Z,14.73
2022-10-20T06:48:59.540Z,12.37
2022-10-20T06:51:26.629Z,15.70
2022-10-20T06:53:53.710Z,21.03
2022-10-20T06:56:23.830Z,16.07
2022-10-20T06:58:53.193Z,16.40
2022-10-20T07:01:33.519Z,19.30
2022-10-20T07:04:03.695Z,18.53
2022-10-20T07:06:37.388Z,15.27
2022-10-20T07:09:07.263Z,24.63
2022-10-20T07:11:35.002Z,15.73
2022-10-20T07:14:02.858Z,21.43
2022-10-20T07:16:32.838Z,16.50
2022-10-20T07:19:01.359Z,33.90
2022-10-20T07:21:32.664Z,20.70
2022-10-20T07:24:05.885Z,14.17
2022-10-20T07:26:35.302Z,14.00
2022-10-20T07:29:04.121Z,17.63
2022-10-20T07:31:40.127Z,16.40
2022-10-20T07:34:27.253Z,12.80
2022-10-20T07:36:56.535Z,15.33
2022-10-20T07:39:27.218Z,15.70
2022-10-20T07:41:54.336Z,17.90
2022-10-20T07:44:21.671Z,21.60
2022-10-20T07:46:48.768Z,16.40
2022-10-20T07:52:02.687Z,12.50
2022-10-20T07:54:29.770Z,10.17
2022-10-20T07:56:56.809Z,12.83
2022-10-20T07:59:24.551Z,9.87
2022-10-20T08:01:54.765Z,17.53
2022-10-20T08:04:25.773Z,10.23
2022-10-20T08:06:52.749Z,13.87
2022-10-20T08:09:19.641Z,12.33
2022-10-20T08:11:46.602Z,10.07
2022-10-20T08:14:13.596Z,11.63
2022-10-20T08:16:41.244Z,10.23
2022-10-20T08:19:14.333Z,19.73
2022-10-20T08:21:43.581Z,19.97
2022-10-20T08:24:10.674Z,13.67
2022-10-20T08:26:37.539Z,9.60
2022-10-20T08:29:04.871Z,14.43
2022-10-20T08:31:31.813Z,10.40
2022-10-20T08:33:59.886Z,10.77
2022-10-20T08:36:30.285Z,29.30
2022-10-20T08:39:03.449Z,10.57
2022-10-20T08:42:02.577Z,12.83
2022-10-20T08:44:34.522Z,9.30
2022-10-20T08:47:14.109Z,10.67
2022-10-20T08:49:41.205Z,8.07
2022-10-20T08:52:15.139Z,11.63
2022-10-20T08:54:42.274Z,11.17
2022-10-20T08:57:24.585Z,10.63
2022-10-20T08:59:53.786Z,18.40
2022-10-20T09:02:21.584Z,8.23
2022-10-20T09:04:56.278Z,11.60
2022-10-20T09:07:34.340Z,10.47
2022-10-20T09:10:38.644Z,9.53
2022-10-20T09:13:32.728Z,11.70
2022-10-20T09:16:04.812Z,15.63
2022-10-20T09:18:33.552Z,14.80
2022-10-20T09:21:15.311Z,8.90
2022-10-20T09:23:45.265Z,8.20
2022-10-20T09:26:44.984Z,12.87
2022-10-20T09:29:17.486Z,8.30
2022-10-20T09:31:53.973Z,10.37
2022-10-20T09:34:31.966Z,10.33
2022-10-20T09:37:11.788Z,9.00
2022-10-20T09:39:59.413Z,8.50
2022-10-20T09:42:32.434Z,18.70
2022-10-20T09:45:05.616Z,15.70
2022-10-20T09:47:34.465Z,14.20
2022-10-20T09:50:04.253Z,8.43
2022-10-20T09:52:35.767Z,12.10
2022-10-20T09:55:19.743Z,7.27
2022-10-20T09:57:50.017Z,17.87
2022-10-20T10:00:41.780Z,9.73
2022-10-20T10:03:23.261Z,8.73
2022-10-20T10:05:58.836Z,18.70
2022-10-20T10:08:29.787Z,12.90
2022-10-20T10:11:02.647Z,20.90
2022-10-20T10:13:32.161Z,7.20
2022-10-20T10:16:06.402Z,8.50
2022-10-20T10:18:34.520Z,8.00
2022-10-20T10:21:15.083Z,7.50
2022-10-20T10:24:02.236Z,6.40
2022-10-20T10:26:37.976Z,6.97
2022-10-20T10:29:05.011Z,11.70
2022-10-20T10:31:33.528Z,7.37
2022-10-20T10:34:32.995Z,7.00
2022-10-20T10:37:00.209Z,6.43
2022-10-20T10:39:29.224Z,6.70
2022-10-20T10:42:54.442Z,8.60
2022-10-20T10:45:56.647Z,16.47
2022-10-20T10:48:57.178Z,14.80
2022-10-20T10:51:48.204Z,6.70
2022-10-20T10:54:45.155Z,8.30
2022-10-20T10:57:31.361Z,6.23
2022-10-20T11:00:07.430Z,12.43
2022-10-20T11:02:59.017Z,8.07
2022-10-20T11:06:04.570Z,7.10
2022-10-20T11:09:12.066Z,11.37
2022-10-20T11:11:51.620Z,8.33
2022-10-20T11:15:07.119Z,10.70
2022-10-20T11:17:54.548Z,9.20
2022-10-20T11:21:14.192Z,6.87
2022-10-20T11:24:22.724Z,7.73
2022-10-20T11:26:54.967Z,8.50
2022-10-20T11:29:44.526Z,5.77
2022-10-20T11:32:31.470Z,5.10
2022-10-20T11:35:23.044Z,7.43
2022-10-20T11:38:06.366Z,8.33
2022-10-20T11:40:40.162Z,13.60
2022-10-20T11:43:39.534Z,6.63
2022-10-20T11:46:20.894Z,14.03
2022-10-20T11:48:51.788Z,5.90
2022-10-20T11:52:14.298Z,16.20
2022-10-20T11:55:05.606Z,14.20
2022-10-20T11:57:59.052Z,12.23
2022-10-20T12:01:06.318Z,9.40
2022-10-20T12:04:14.436Z,14.03
2022-10-20T12:06:57.652Z,8.63
2022-10-20T12:09:58.762Z,5.37
2022-10-20T12:13:12.959Z,5.50
2022-10-20T12:15:52.131Z,5.67
2022-10-20T12:18:27.886Z,11.30
2022-10-20T12:21:01.977Z,10.17
2022-10-20T12:24:24.486Z,7.30
2022-10-20T12:27:30.487Z,10.03
2022-10-20T12:30:38.726Z,9.07
2022-10-20T12:33:20.254Z,18.37
2022-10-20T12:36:34.191Z,13.17
2022-10-20T12:39:30.870Z,11.20
2022-10-20T12:42:02.772Z,7.03
2022-10-20T12:44:40.355Z,12.00
2022-10-20T12:47:09.099Z,8.30
2022-10-20T12:49:40.567Z,12.47
2022-10-20T12:52:17.411Z,13.47
2022-10-20T12:54:48.477Z,15.20
2022-10-20T12:57:38.455Z,16.87
2022-10-20T13:00:39.482Z,11.43
2022-10-20T13:03:36.408Z,11.53
2022-10-20T13:06:43.581Z,14.70
2022-10-20T13:09:23.014Z,7.50
2022-10-20T13:12:01.169Z,11.30
2022-10-20T13:14:50.997Z,10.20
2022-10-20T13:17:25.357Z,15.47
2022-10-20T13:20:01.961Z,7.20
2022-10-20T13:22:47.684Z,10.57
2022-10-20T13:25:18.720Z,8.53
2022-10-20T13:27:49.184Z,15.50
2022-10-20T13:30:22.636Z,16.30
2022-10-20T13:33:33.207Z,11.37
2022-10-20T13:36:38.072Z,9.97
2022-10-20T13:39:16.918Z,15.03
2022-10-20T13:42:17.121Z,11.70
2022-10-20T13:45:35.935Z,21.30
2022-10-20T13:48:43.657Z,14.10
2022-10-20T13:51:24.580Z,11.63
2022-10-20T13:53:55.936Z,14.03
2022-10-20T13:56:49.487Z,11.23
2022-10-20T14:02:14.175Z,15.43
2022-10-20T14:04:41.458Z,16.10
2022-10-20T14:07:13.488Z,14.57
2022-10-20T14:09:45.363Z,27.73
2022-10-20T14:12:26.745Z,12.43
2022-10-20T14:15:01.425Z,13.93
2022-10-20T14:17:29.172Z,11.67
2022-10-20T14:20:19.664Z,17.33
2022-10-20T14:22:47.435Z,16.70
2022-10-20T14:25:14.626Z,11.47
2022-10-20T14:27:41.676Z,18.13
2022-10-20T14:30:14.634Z,16.90
2022-10-20T14:32:43.263Z,27.07
2022-10-20T14:35:29.012Z,21.17
2022-10-20T14:38:14.843Z,15.93
2022-10-20T14:40:48.459Z,19.20
2022-10-20T14:43:19.501Z,20.90
2022-10-20T14:45:58.376Z,16.87
2022-10-20T14:48:49.217Z,19.43
2022-10-20T14:51:45.059Z,20.00
2022-10-20T14:54:28.107Z,16.83
2022-10-20T14:57:01.849Z,18.67
2022-10-20T14:59:31.209Z,29.87
2022-10-20T15:02:13.675Z,23.13
2022-10-20T15:04:42.574Z,18.93
2022-10-20T15:07:32.485Z,17.90
2022-10-20T15:10:14.377Z,19.87
2022-10-20T15:12:43.946Z,17.63
2022-10-20T15:15:23.972Z,22.80
2022-10-20T15:18:14.521Z,15.53
2022-10-20T15:20:43.763Z,14.20
2022-10-20T15:23:30.865Z,24.20
2022-10-20T15:26:04.677Z,15.50
2022-10-20T15:28:38.990Z,26.37
2022-10-20T15:31:22.486Z,20.30
2022-10-20T15:33:49.973Z,18.20
2022-10-20T15:36:22.382Z,15.70
2022-10-20T15:38:50.229Z,18.53
2022-10-20T15:41:23.221Z,20.70
2022-10-20T15:43:50.156Z,19.97
2022-10-20T15:46:18.383Z,20.10
2022-10-20T15:48:45.991Z,15.90
2022-10-20T15:51:18.705Z,18.57
2022-10-20T15:53:49.596Z,25.40
2022-10-20T15:56:17.781Z,18.73
2022-10-20T15:58:45.208Z,15.57
2022-10-20T16:01:16.977Z,19.80
2022-10-20T16:03:45.112Z,18.00
2022-10-20T16:06:13.626Z,19.73
2022-10-20T16:08:44.544Z,21.30
2022-10-20T16:11:12.049Z,24.47
2022-10-20T16:13:39.793Z,16.43
2022-10-20T16:16:08.327Z,17.07
2022-10-20T16:18:35.318Z,25.83
2022-10-20T16:21:05.030Z,17.17
2022-10-20T16:23:32.508Z,30.87
2022-10-20T16:25:59.437Z,25.47
2022-10-20T16:28:26.587Z,19.50
2022-10-20T16:31:06.144Z,26.53
2022-10-20T16:33:33.763Z,17.90
2022-10-20T16:36:09.670Z,22.17
2022-10-20T16:38:40.117Z,22.53
2022-10-20T16:41:13.224Z,23.60
2022-10-20T16:43:42.385Z,24.03
2022-10-20T16:46:10.861Z,27.70
2022-10-20T16:48:41.379Z,18.90
2022-10-20T16:51:12.477Z,24.10
2022-10-20T16:53:39.478Z,19.80
2022-10-20T16:56:07.358Z,25.57
2022-10-20T16:58:36.013Z,19.63
2022-10-20T17:01:06.486Z,20.70
2022-10-20T17:03:33.938Z,31.83
2022-10-20T17:06:05.277Z,24.53
2022-10-20T17:08:33.415Z,20.00
2022-10-20T17:11:03.856Z,21.17
2022-10-20T17:13:32.124Z,22.17
2022-10-20T17:16:22.416Z,32.73
2022-10-20T17:18:53.868Z,39.37
2022-10-20T17:21:22.910Z,28.47
2022-10-20T17:23:49.933Z,19.47
2022-10-20T17:26:23.897Z,29.17
2022-10-20T17:29:02.179Z,24.57
2022-10-20T17:31:29.607Z,25.73
2022-10-20T17:33:58.720Z,31.67
2022-10-20T17:36:26.631Z,30.70
2022-10-20T17:38:59.985Z,28.60
2022-10-20T17:41:27.469Z,24.83
2022-10-20T17:43:54.617Z,34.97
2022-10-20T17:46:21.667Z,38.67
2022-10-20T17:48:48.683Z,35.40
2022-10-20T17:51:18.079Z,27.13
2022-10-20T17:53:48.096Z,28.57
2022-10-20T17:56:20.837Z,35.70
2022-10-20T17:58:50.665Z,35.23
2022-10-20T18:01:38.328Z,31.13
2022-10-20T18:04:15.268Z,32.43
2022-10-20T18:06:43.774Z,32.03
2022-10-20T18:09:13.415Z,36.97
2022-10-20T18:11:43.151Z,33.50
2022-10-20T18:14:10.308Z,34.50
2022-10-20T18:16:38.546Z,42.30
2022-10-20T18:19:06.253Z,37.13
2022-10-20T18:21:34.100Z,26.63
2022-10-20T18:24:03.523Z,39.17
2022-10-20T18:26:33.062Z,33.80
2022-10-20T18:29:01.928Z,38.03
2022-10-20T18:31:31.457Z,33.03
2022-10-20T18:34:04.287Z,33.70
2022-10-20T18:36:35.629Z,33.77
2022-10-20T18:39:05.144Z,39.97
2022-10-20T18:41:37.447Z,33.50
2022-10-20T18:44:07.180Z,33.83
2022-10-20T18:46:35.012Z,31.87
2022-10-20T18:49:04.084Z,35.67
2022-10-20T18:51:32.185Z,36.40
2022-10-20T18:54:00.543Z,38.20
2022-10-20T18:56:29.757Z,35.90
2022-10-20T18:59:02.551Z,28.20
2022-10-20T19:01:34.135Z,31.53
2022-10-20T19:04:01.716Z,24.47
2022-10-20T19:06:31.369Z,28.07
2022-10-20T19:09:01.190Z,29.13
2022-10-20T19:11:34.309Z,19.10
2022-10-20T19:14:01.607Z,22.50
2022-10-20T19:16:31.314Z,20.60
2022-10-20T19:19:00.206Z,19.77
2022-10-20T19:21:28.582Z,27.53
2022-10-20T19:24:11.657Z,21.40
2022-10-20T19:26:41.890Z,21.23
2022-10-20T19:29:12.256Z,26.77
2022-10-20T19:31:52.689Z,19.60
2022-10-20T19:34:33.683Z,14.57
2022-10-20T19:37:01.290Z,12.30
2022-10-20T19:39:35.022Z,18.30
2022-10-20T19:42:03.931Z,16.60
2022-10-20T19:44:31.209Z,14.03
2022-10-20T19:46:58.589Z,18.20
2022-10-20T19:49:26.670Z,12.23
2022-10-20T19:51:53.933Z,16.80
2022-10-20T19:54:20.985Z,16.27
2022-10-20T19:56:47.899Z,17.33
2022-10-20T19:59:14.872Z,16.50
2022-10-20T20:01:41.892Z,21.63
2022-10-20T20:04:10.878Z,15.60
2022-10-20T20:06:37.998Z,19.27
2022-10-20T20:09:08.507Z,31.93
2022-10-20T20:11:37.722Z,19.60
2022-10-20T20:14:10.893Z,17.23
2022-10-20T20:16:38.477Z,17.47
2022-10-20T20:19:05.668Z,19.33
2022-10-20T20:21:33.685Z,24.77
2022-10-20T20:24:02.498Z,20.97
2022-10-20T20:26:31.450Z,18.53
2022-10-20T20:28:59.121Z,21.53
2022-10-20T20:31:27.986Z,24.07
2022-10-20T20:33:56.993Z,17.40
2022-10-20T20:36:27.145Z,14.90
2022-10-20T20:38:59.051Z,16.17
2022-10-20T20:41:28.332Z,18.73
2022-10-20T20:43:55.239Z,23.03
2022-10-20T20:46:23.755Z,16.50
2022-10-20T20:48:51.206Z,14.57
2022-10-20T20:51:18.748Z,14.90
2022-10-20T20:53:45.640Z,17.70
2022-10-20T20:56:15.315Z,14.03
2022-10-20T20:58:45.268Z,17.97
2022-10-20T21:01:19.188Z,15.77
2022-10-20T21:03:46.317Z,15.50
2022-10-20T21:06:17.832Z,17.00
2022-10-20T21:08:47.655Z,18.60
2022-10-20T21:11:19.906Z,13.23
2022-10-20T21:13:48.137Z,10.80
2022-10-20T21:16:18.144Z,14.47
2022-10-20T21:18:48.220Z,9.23
2022-10-20T21:21:23.551Z,9.83
2022-10-20T21:23:51.070Z,10.80
2022-10-20T21:26:19.547Z,11.33
2022-10-20T21:28:47.068Z,9.77
2022-10-20T21:31:16.260Z,9.57
2022-10-20T21:33:43.194Z,10.60
2022-10-20T21:36:15.543Z,8.60
2022-10-20T21:38:43.437Z,9.70
2022-10-20T21:41:16.544Z,10.23
2022-10-20T21:43:49.010Z,7.97
2022-10-20T21:46:33.830Z,8.57
2022-10-20T21:49:06.135Z,13.43
2022-10-20T21:51:35.521Z,13.00
2022-10-20T21:54:06.160Z,9.60
2022-10-20T21:56:37.320Z,13.83
2022-10-20T21:59:05.745Z,9.63
2022-10-20T22:01:32.891Z,17.00
2022-10-20T22:04:00.079Z,10.10
2022-10-20T22:06:28.469Z,14.03
2022-10-20T22:09:00.017Z,13.83
2022-10-20T22:11:30.083Z,8.23
2022-10-20T22:13:57.894Z,17.57
2022-10-20T22:16:27.575Z,12.43
2022-10-20T22:19:16.074Z,10.00
2022-10-20T22:21:46.346Z,10.73
2022-10-20T22:24:13.750Z,14.27
2022-10-20T22:26:41.733Z,9.40
2022-10-20T22:29:12.239Z,9.20
2022-10-20T22:31:40.929Z,14.90
2022-10-20T22:34:08.894Z,12.23
2022-10-20T22:36:36.254Z,15.83
2022-10-20T22:39:04.185Z,9.63
2022-10-20T22:41:31.132Z,12.77
2022-10-20T22:43:58.568Z,11.30
2022-10-20T22:46:26.227Z,15.63
2022-10-20T22:48:53.342Z,9.70
2022-10-20T22:51:20.277Z,11.03
2022-10-20T22:53:47.340Z,9.20
2022-10-20T22:56:16.866Z,8.60
2022-10-20T22:58:44.374Z,7.37
2022-10-20T23:01:21.665Z,13.43
2022-10-20T23:03:48.682Z,6.63
2022-10-20T23:06:24.353Z,9.77
2022-10-20T23:08:54.087Z,7.37
2022-10-20T23:11:21.991Z,9.30
2022-10-20T23:13:51.050Z,8.60
2022-10-20T23:16:18.164Z,14.67
2022-10-20T23:18:45.255Z,11.10
2022-10-20T23:21:14.147Z,12.83
2022-10-20T23:23:45.069Z,8.50
2022-10-20T23:26:12.961Z,18.33
2022-10-20T23:28:40.151Z,15.50
2022-10-20T23:31:15.940Z,10.27
2022-10-20T23:33:44.860Z,11.60
2022-10-20T23:36:13.403Z,13.17
2022-10-20T23:38:40.943Z,9.73
2022-10-20T23:41:07.919Z,14.33
2022-10-20T23:46:03.381Z,12.03
2022-10-20T23:48:30.671Z,8.97
2022-10-20T23:50:58.133Z,11.67
2022-10-20T23:53:25.396Z,13.50
2022-10-20T23:55:52.870Z,11.67
2022-10-20T23:58:23.319Z,13.00
